createdAt,value
2023-10-06T00:00:44.724Z,1.10
2023-10-06T00:03:31.647Z,1.00
2023-10-06T00:05:58.885Z,0.40
2023-10-06T00:08:37.846Z,2.60
2023-10-06T00:11:18.004Z,1.40
2023-10-06T00:14:03.264Z,1.40
2023-10-06T00:16:41.829Z,1.10
2023-10-06T00:19:22.361Z,0.40
2023-10-06T00:22:05.896Z,2.30
2023-10-06T00:24:43.887Z,1.00
2023-10-06T00:27:20.872Z,0.80
2023-10-06T00:29:52.053Z,0.60
2023-10-06T00:32:25.906Z,2.00
2023-10-06T00:37:56.626Z,1.80
2023-10-06T00:40:12.968Z,21.30
2023-10-06T00:42:51.099Z,53.30
2023-10-06T00:45:26.767Z,64.20
2023-10-06T00:47:56.060Z,16.50
2023-10-06T00:50:35.459Z,2.30
2023-10-06T00:53:06.569Z,0.60
2023-10-06T00:55:41.219Z,1.00
2023-10-06T00:58:16.376Z,1.50
2023-10-06T01:00:50.266Z,0.80
2023-10-06T01:03:23.914Z,2.20
2023-10-06T01:06:03.474Z,3.70
2023-10-06T01:08:25.749Z,0.50
2023-10-06T01:11:14.058Z,0.70
2023-10-06T01:13:59.292Z,0.70
2023-10-06T01:16:22.731Z,2.10
2023-10-06T01:18:52.640Z,0.40
2023-10-06T01:21:47.881Z,0.80
2023-10-06T01:24:26.116Z,0.60
2023-10-06T01:27:01.287Z,1.30
2023-10-06T01:29:31.646Z,0.30
2023-10-06T01:32:07.828Z,2.60
2023-10-06T01:34:42.786Z,0.50
2023-10-06T01:37:18.569Z,2.70
2023-10-06T01:39:53.909Z,1.10
2023-10-06T01:42:50.829Z,2.60
2023-10-06T01:45:23.577Z,0.60
2023-10-06T01:47:59.149Z,1.10
2023-10-06T01:50:21.256Z,3.30
2023-10-06T01:52:56.575Z,0.90
2023-10-06T01:55:30.463Z,1.60
2023-10-06T01:58:06.463Z,1.40
2023-10-06T02:00:40.346Z,3.40
2023-10-06T02:03:12.538Z,1.40
2023-10-06T02:05:47.385Z,0.80
2023-10-06T02:08:23.335Z,0.30
2023-10-06T02:10:57.840Z,1.10
2023-10-06T02:13:25.778Z,0.60
2023-10-06T02:15:48.222Z,4.50
2023-10-06T02:18:23.513Z,1.60
2023-10-06T02:20:51.318Z,1.70
2023-10-06T02:23:25.679Z,3.50
2023-10-06T02:25:59.454Z,2.80
2023-10-06T02:28:34.404Z,1.30
2023-10-06T02:30:57.592Z,1.00
2023-10-06T02:33:48.798Z,1.90
2023-10-06T02:36:25.415Z,0.50
2023-10-06T02:38:59.438Z,2.20
2023-10-06T02:41:35.197Z,1.80
2023-10-06T02:44:17.475Z,1.50
2023-10-06T02:46:41.221Z,2.10
2023-10-06T02:49:11.304Z,2.30
2023-10-06T02:51:51.729Z,1.40
2023-10-06T02:54:30.389Z,0.70
2023-10-06T02:57:07.268Z,3.60
2023-10-06T02:59:41.392Z,2.20
2023-10-06T03:02:38.353Z,2.60
2023-10-06T03:05:16.199Z,1.60
2023-10-06T03:08:00.758Z,2.70
2023-10-06T03:10:45.344Z,0.60
2023-10-06T03:13:24.571Z,0.90
2023-10-06T03:15:59.631Z,2.90
2023-10-06T03:18:25.942Z,2.90
2023-10-06T03:21:07.486Z,0.60
2023-10-06T03:23:41.186Z,3.70
2023-10-06T03:26:24.304Z,1.50
2023-10-06T03:29:05.051Z,3.40
2023-10-06T03:31:47.104Z,5.50
2023-10-06T03:34:22.904Z,1.30
2023-10-06T03:36:58.389Z,4.80
2023-10-06T03:39:30.668Z,19.10
2023-10-06T03:42:10.085Z,30.90
2023-10-06T03:44:47.881Z,25.20
2023-10-06T03:47:25.694Z,21.30
2023-10-06T03:49:49.430Z,27.10
2023-10-06T03:52:26.215Z,24.00
2023-10-06T03:55:02.699Z,9.50
2023-10-06T03:57:26.799Z,7.90
2023-10-06T04:00:01.240Z,3.40
2023-10-06T04:02:41.239Z,1.10
2023-10-06T04:05:16.953Z,5.60
2023-10-06T04:07:51.587Z,3.50
2023-10-06T04:10:37.334Z,3.00
2023-10-06T04:13:12.353Z,2.00
2023-10-06T04:15:48.428Z,4.30
2023-10-06T04:18:24.621Z,1.10
2023-10-06T04:20:59.977Z,4.30
2023-10-06T04:23:25.367Z,0.90
2023-10-06T04:25:59.878Z,1.50
2023-10-06T04:28:22.506Z,1.20
2023-10-06T04:30:49.636Z,1.00
2023-10-06T04:33:25.346Z,0.80
2023-10-06T04:36:02.268Z,3.20
2023-10-06T04:38:27.525Z,1.40
2023-10-06T04:41:01.008Z,1.20
2023-10-06T04:43:36.337Z,2.10
2023-10-06T04:46:10.738Z,4.20
2023-10-06T04:48:54.662Z,1.60
2023-10-06T04:51:29.705Z,1.40
2023-10-06T04:54:05.044Z,3.60
2023-10-06T04:56:34.826Z,1.40
2023-10-06T04:59:02.030Z,1.00
2023-10-06T05:01:38.722Z,4.10
2023-10-06T05:04:12.160Z,2.00
2023-10-06T05:06:46.376Z,1.40
2023-10-06T05:09:23.445Z,1.10
2023-10-06T05:12:00.165Z,1.70
2023-10-06T05:14:36.616Z,1.80
2023-10-06T05:17:09.284Z,2.20
2023-10-06T05:19:44.063Z,0.90
2023-10-06T05:22:18.168Z,1.50
2023-10-06T05:24:46.541Z,1.90
2023-10-06T05:27:21.946Z,2.70
2023-10-06T05:29:56.567Z,2.20
2023-10-06T05:32:19.363Z,2.50
2023-10-06T05:34:55.418Z,2.30
2023-10-06T05:37:30.474Z,1.10
2023-10-06T05:40:05.747Z,1.10
2023-10-06T05:42:39.099Z,2.90
2023-10-06T05:45:20.792Z,1.30
2023-10-06T05:47:57.357Z,2.70
2023-10-06T05:50:29.320Z,2.90
2023-10-06T05:52:56.084Z,0.90
2023-10-06T05:55:32.038Z,0.60
2023-10-06T05:58:06.423Z,1.90
2023-10-06T06:00:46.225Z,1.50
2023-10-06T06:03:23.146Z,3.40
2023-10-06T06:06:18.447Z,2.80
2023-10-06T06:08:54.265Z,1.50
2023-10-06T06:11:22.760Z,1.80
2023-10-06T06:15:08.149Z,2.60
2023-10-06T06:16:55.379Z,1.40
2023-10-06T06:19:23.388Z,1.40
2023-10-06T06:21:47.529Z,1.20
2023-10-06T06:24:24.638Z,2.60
2023-10-06T06:26:47.968Z,0.80
2023-10-06T06:29:22.370Z,1.10
2023-10-06T06:31:48.892Z,1.60
2023-10-06T06:34:23.410Z,2.50
2023-10-06T06:36:47.740Z,1.80
2023-10-06T06:39:13.169Z,0.90
2023-10-06T06:41:48.932Z,0.80
2023-10-06T06:44:21.704Z,0.70
2023-10-06T06:46:57.369Z,2.00
2023-10-06T06:49:31.755Z,2.70
2023-10-06T06:52:09.674Z,1.10
2023-10-06T06:54:39.216Z,1.20
2023-10-06T06:57:15.471Z,2.60
2023-10-06T06:59:51.860Z,0.70
2023-10-06T07:02:26.340Z,1.60
2023-10-06T07:05:01.556Z,0.90
2023-10-06T07:07:37.473Z,1.00
2023-10-06T07:10:09.259Z,1.30
2023-10-06T07:12:32.639Z,2.10
2023-10-06T07:15:06.998Z,0.60
2023-10-06T07:17:42.406Z,1.60
2023-10-06T07:20:21.473Z,2.30
2023-10-06T07:22:57.331Z,1.60
2023-10-06T07:25:31.243Z,0.70
2023-10-06T07:28:39.023Z,4.50
2023-10-06T07:30:55.401Z,3.40
2023-10-06T07:33:31.139Z,2.30
2023-10-06T07:36:06.358Z,1.00
2023-10-06T07:38:30.527Z,0.80
2023-10-06T07:41:05.603Z,0.60
2023-10-06T07:43:40.339Z,1.80
2023-10-06T07:46:18.521Z,2.30
2023-10-06T07:48:53.841Z,1.80
2023-10-06T07:51:30.856Z,1.40
2023-10-06T07:54:09.346Z,1.60
2023-10-06T07:57:03.671Z,1.10
2023-10-06T07:59:45.447Z,0.90
2023-10-06T08:02:25.425Z,0.50
2023-10-06T08:05:37.045Z,2.90
2023-10-06T08:08:18.534Z,3.50
2023-10-06T08:11:14.364Z,2.30
2023-10-06T08:13:52.204Z,3.30
2023-10-06T08:17:13.638Z,1.30
2023-10-06T08:19:29.518Z,2.90
2023-10-06T08:22:09.736Z,0.50
2023-10-06T08:24:56.784Z,2.60
2023-10-06T08:27:47.058Z,0.40
2023-10-06T08:30:29.920Z,2.30
2023-10-06T08:33:05.461Z,3.10
2023-10-06T08:35:33.684Z,1.00
2023-10-06T08:38:29.360Z,1.00
2023-10-06T08:41:14.411Z,0.80
2023-10-06T08:44:01.707Z,1.60
2023-10-06T08:46:55.753Z,2.40
2023-10-06T08:49:32.405Z,0.50
2023-10-06T08:52:08.855Z,1.90
2023-10-06T08:54:45.148Z,3.20
2023-10-06T08:57:21.047Z,4.70
2023-10-06T09:00:01.504Z,0.60
2023-10-06T09:03:07.077Z,7.60
2023-10-06T09:05:45.858Z,0.90
2023-10-06T09:08:50.064Z,1.40
2023-10-06T09:11:23.355Z,1.00
2023-10-06T09:14:14.140Z,0.50
2023-10-06T09:17:07.523Z,1.00
2023-10-06T09:19:58.940Z,0.40
2023-10-06T09:22:39.284Z,2.60
2023-10-06T09:25:31.606Z,4.80
2023-10-06T09:28:16.030Z,2.10
2023-10-06T09:31:03.125Z,0.90
2023-10-06T09:33:51.197Z,1.80
2023-10-06T09:36:40.724Z,0.90
2023-10-06T09:41:58.641Z,1.20
2023-10-06T09:44:35.775Z,2.40
2023-10-06T09:47:05.898Z,2.50
2023-10-06T09:49:31.377Z,0.70
2023-10-06T09:52:52.621Z,2.10
2023-10-06T09:55:17.244Z,2.00
2023-10-06T09:57:52.484Z,0.90
2023-10-06T10:00:28.754Z,1.00
2023-10-06T10:02:55.586Z,2.00
2023-10-06T10:05:27.698Z,5.70
2023-10-06T10:07:56.729Z,0.60
2023-10-06T10:10:24.532Z,1.40
2023-10-06T10:13:30.246Z,5.10
2023-10-06T10:16:29.213Z,0.50
2023-10-06T10:19:25.526Z,2.60
2023-10-06T10:22:04.577Z,4.10
2023-10-06T10:25:16.447Z,0.70
2023-10-06T10:27:39.738Z,2.10
2023-10-06T10:30:11.963Z,0.60
2023-10-06T10:32:36.402Z,1.10
2023-10-06T10:35:28.886Z,1.50
2023-10-06T10:38:21.894Z,3.30
2023-10-06T10:40:55.943Z,2.40
2023-10-06T10:43:25.295Z,1.20
2023-10-06T10:46:00.187Z,0.70
2023-10-06T10:48:41.053Z,0.50
2023-10-06T10:51:34.834Z,2.40
2023-10-06T10:54:03.665Z,1.30
2023-10-06T10:56:45.502Z,3.80
2023-10-06T10:59:10.478Z,1.30
2023-10-06T11:01:46.187Z,2.00
2023-10-06T11:04:33.763Z,0.70
2023-10-06T11:07:17.828Z,0.50
2023-10-06T11:09:51.195Z,0.30
2023-10-06T11:12:32.084Z,1.00
2023-10-06T11:15:17.581Z,1.90
2023-10-06T11:17:51.097Z,2.30
2023-10-06T11:20:27.216Z,1.90
2023-10-06T11:23:11.525Z,0.70
2023-10-06T11:25:54.078Z,1.40
2023-10-06T11:28:37.065Z,0.90
2023-10-06T11:31:01.123Z,2.20
2023-10-06T11:38:43.285Z,0.90
2023-10-06T11:41:07.490Z,2.00
2023-10-06T11:43:41.486Z,0.70
2023-10-06T11:46:17.743Z,0.50
2023-10-06T11:48:52.436Z,1.60
2023-10-06T11:51:24.824Z,4.80
2023-10-06T11:53:47.264Z,1.10
2023-10-06T11:56:16.128Z,3.90
2023-10-06T11:58:43.817Z,1.80
2023-10-06T12:01:35.174Z,3.50
2023-10-06T12:04:03.658Z,0.30
2023-10-06T12:06:47.517Z,0.40
2023-10-06T12:09:35.959Z,0.70
2023-10-06T12:12:10.765Z,0.80
2023-10-06T12:14:44.622Z,0.60
2023-10-06T12:17:29.797Z,1.40
2023-10-06T12:20:05.168Z,1.10
2023-10-06T12:22:41.476Z,2.10
2023-10-06T12:25:03.662Z,0.50
2023-10-06T12:27:36.723Z,1.00
2023-10-06T12:30:21.705Z,0.40
2023-10-06T12:32:56.918Z,1.60
2023-10-06T12:35:22.462Z,2.50
2023-10-06T12:37:56.473Z,3.10
2023-10-06T12:42:51.631Z,0.40
2023-10-06T12:45:26.740Z,0.60
2023-10-06T12:48:07.378Z,0.70
2023-10-06T12:50:53.034Z,0.80
2023-10-06T12:53:27.035Z,1.40
2023-10-06T12:56:00.944Z,1.10
2023-10-06T12:58:34.237Z,0.70
2023-10-06T13:01:10.234Z,0.60
2023-10-06T13:04:08.042Z,1.10
2023-10-06T13:06:47.778Z,0.70
2023-10-06T13:09:22.898Z,0.70
2023-10-06T13:12:19.289Z,2.10
2023-10-06T13:14:44.825Z,1.70
2023-10-06T13:17:18.269Z,1.30
2023-10-06T13:19:52.383Z,0.40
2023-10-06T13:22:29.506Z,2.30
2023-10-06T13:24:57.060Z,1.50
2023-10-06T13:27:19.846Z,0.90
2023-10-06T13:30:10.689Z,0.60
2023-10-06T13:32:35.053Z,0.60
2023-10-06T13:35:14.479Z,0.70
2023-10-06T13:37:49.745Z,1.90
2023-10-06T13:40:25.145Z,1.00
2023-10-06T13:43:13.177Z,0.60
2023-10-06T13:45:49.178Z,2.20
2023-10-06T13:48:24.824Z,0.60
2023-10-06T13:51:00.746Z,0.40
2023-10-06T13:53:34.546Z,2.00
2023-10-06T13:55:59.177Z,4.80
2023-10-06T13:58:35.794Z,0.80
2023-10-06T14:01:52.759Z,1.00
2023-10-06T14:04:27.705Z,0.90
2023-10-06T14:07:01.152Z,0.90
2023-10-06T14:09:36.848Z,0.80
2023-10-06T14:12:16.205Z,0.80
2023-10-06T14:15:02.177Z,1.60
2023-10-06T14:17:36.979Z,0.80
2023-10-06T14:20:25.921Z,1.20
2023-10-06T14:23:00.829Z,2.70
2023-10-06T14:25:32.185Z,2.20
2023-10-06T14:28:09.637Z,2.40
2023-10-06T14:30:45.116Z,1.80
2023-10-06T14:33:25.435Z,2.30
2023-10-06T14:36:13.004Z,1.70
2023-10-06T14:39:03.677Z,1.70
2023-10-06T14:41:54.206Z,0.80
2023-10-06T14:44:43.908Z,2.20
2023-10-06T14:47:12.151Z,2.20
2023-10-06T14:49:47.838Z,2.10
2023-10-06T14:52:21.926Z,1.10
2023-10-06T14:54:46.115Z,0.50
2023-10-06T14:57:20.180Z,1.60
2023-10-06T14:59:46.596Z,2.40
2023-10-06T15:02:23.859Z,1.20
2023-10-06T15:04:58.388Z,2.30
2023-10-06T15:07:21.319Z,1.20
2023-10-06T15:09:56.118Z,4.00
2023-10-06T15:12:30.267Z,1.00
2023-10-06T15:15:04.303Z,3.30
2023-10-06T15:17:37.900Z,1.00
2023-10-06T15:20:15.632Z,1.90
2023-10-06T15:23:42.206Z,0.70
2023-10-06T15:25:33.873Z,0.40
2023-10-06T15:28:09.865Z,0.50
2023-10-06T15:30:50.114Z,1.00
2023-10-06T15:33:27.715Z,0.60
2023-10-06T15:35:51.014Z,1.30
2023-10-06T15:38:21.846Z,0.90
2023-10-06T15:41:12.820Z,2.00
2023-10-06T15:43:48.508Z,1.30
2023-10-06T15:46:22.350Z,0.50
2023-10-06T15:48:51.525Z,4.20
2023-10-06T15:51:20.914Z,1.00
2023-10-06T15:53:55.125Z,3.10
2023-10-06T15:56:32.009Z,1.20
2023-10-06T15:59:05.818Z,2.00
2023-10-06T16:01:33.909Z,1.70
2023-10-06T16:04:08.309Z,1.50
2023-10-06T16:06:26.186Z,1.50
2023-10-06T16:09:02.622Z,1.60
2023-10-06T16:11:37.020Z,0.60
2023-10-06T16:14:17.957Z,2.30
2023-10-06T16:16:40.786Z,5.00
2023-10-06T16:19:15.914Z,1.60
2023-10-06T16:21:52.361Z,0.60
2023-10-06T16:24:29.244Z,2.40
2023-10-06T16:27:02.976Z,1.40
2023-10-06T16:29:37.808Z,0.40
2023-10-06T16:32:11.471Z,1.40
2023-10-06T16:34:46.517Z,0.60
2023-10-06T16:37:20.270Z,1.90
2023-10-06T16:39:54.534Z,0.50
2023-10-06T16:42:28.796Z,0.50
2023-10-06T16:45:02.120Z,1.10
2023-10-06T16:47:30.033Z,3.20
2023-10-06T16:50:25.827Z,0.60
2023-10-06T16:53:00.540Z,0.80
2023-10-06T16:55:23.555Z,0.80
2023-10-06T16:57:58.974Z,1.70
2023-10-06T17:00:53.860Z,2.60
2023-10-06T17:03:29.397Z,0.50
2023-10-06T17:06:02.981Z,1.60
2023-10-06T17:08:37.584Z,0.40
2023-10-06T17:11:18.948Z,1.00
2023-10-06T17:13:55.308Z,3.20
2023-10-06T17:16:49.628Z,2.00
2023-10-06T17:19:23.553Z,0.50
2023-10-06T17:21:57.618Z,2.50
2023-10-06T17:24:45.513Z,3.80
2023-10-06T17:27:18.935Z,1.60
2023-10-06T17:29:43.803Z,0.20
2023-10-06T17:32:17.629Z,1.10
2023-10-06T17:34:51.947Z,1.80
2023-10-06T17:37:30.753Z,1.70
2023-10-06T17:39:57.953Z,2.80
2023-10-06T17:42:32.975Z,2.20
2023-10-06T17:44:55.955Z,0.80
2023-10-06T17:47:30.035Z,1.90
2023-10-06T17:50:04.097Z,1.60
2023-10-06T17:54:15.129Z,0.60
2023-10-06T17:55:35.245Z,1.60
2023-10-06T17:58:08.350Z,0.70
2023-10-06T18:00:42.331Z,0.40
2023-10-06T18:03:14.998Z,2.20
2023-10-06T18:05:54.756Z,1.30
2023-10-06T18:08:29.875Z,1.20
2023-10-06T18:11:03.727Z,1.00
2023-10-06T18:13:38.604Z,2.60
2023-10-06T18:16:06.953Z,1.10
2023-10-06T18:18:42.811Z,1.50
2023-10-06T18:21:19.838Z,1.00
2023-10-06T18:23:56.084Z,0.80
2023-10-06T18:26:21.249Z,0.40
2023-10-06T18:28:43.936Z,0.40
2023-10-06T18:31:18.350Z,1.30
2023-10-06T18:33:51.337Z,1.40
2023-10-06T18:36:25.208Z,1.40
2023-10-06T18:38:59.483Z,3.40
2023-10-06T18:41:33.558Z,1.20
2023-10-06T18:44:12.892Z,0.60
2023-10-06T18:46:47.760Z,1.90
2023-10-06T18:49:21.511Z,1.50
2023-10-06T18:51:55.134Z,1.10
2023-10-06T18:54:28.359Z,0.30
2023-10-06T18:56:50.989Z,1.90
2023-10-06T18:59:17.104Z,1.10
2023-10-06T19:01:50.675Z,0.50
2023-10-06T19:04:15.125Z,0.40
2023-10-06T19:06:42.067Z,0.50
2023-10-06T19:09:17.321Z,2.00
2023-10-06T19:11:40.780Z,1.70
2023-10-06T19:14:17.492Z,1.50
2023-10-06T19:16:51.866Z,0.50
2023-10-06T19:19:14.384Z,0.50
2023-10-06T19:21:50.062Z,1.70
2023-10-06T19:24:22.509Z,0.30
2023-10-06T19:26:44.557Z,3.00
2023-10-06T19:29:21.505Z,1.90
2023-10-06T19:31:55.606Z,2.00
2023-10-06T19:34:30.490Z,1.40
2023-10-06T19:37:04.934Z,2.50
2023-10-06T19:39:39.996Z,0.80
2023-10-06T19:42:15.778Z,0.90
2023-10-06T19:44:48.896Z,0.60
2023-10-06T19:47:27.839Z,0.90
2023-10-06T19:50:04.162Z,1.10
2023-10-06T19:52:38.400Z,2.10
2023-10-06T19:55:00.702Z,0.90
2023-10-06T19:57:34.754Z,1.00
2023-10-06T20:00:14.475Z,2.80
2023-10-06T20:02:38.459Z,0.90
2023-10-06T20:05:14.418Z,0.80
2023-10-06T20:07:49.239Z,1.80
2023-10-06T20:10:24.612Z,1.70
2023-10-06T20:12:47.301Z,1.00
2023-10-06T20:15:22.383Z,2.20
2023-10-06T20:17:57.698Z,49.00
2023-10-06T20:20:33.494Z,23.70
2023-10-06T20:22:56.917Z,49.10
2023-10-06T20:25:32.512Z,3.50
2023-10-06T20:28:07.372Z,62.00
2023-10-06T20:30:43.467Z,31.50
2023-10-06T20:33:17.586Z,35.90
2023-10-06T20:35:49.405Z,35.40
2023-10-06T20:38:23.552Z,20.50
2023-10-06T20:40:48.150Z,35.20
2023-10-06T20:43:21.670Z,22.90
2023-10-06T20:45:55.934Z,75.00
2023-10-06T20:48:21.649Z,61.20
2023-10-06T20:50:55.083Z,21.40
2023-10-06T20:53:31.457Z,53.00
2023-10-06T20:56:08.993Z,21.20
2023-10-06T20:58:43.962Z,29.80
2023-10-06T21:01:28.045Z,27.50
2023-10-06T21:03:57.177Z,31.10
2023-10-06T21:06:33.033Z,16.40
2023-10-06T21:09:01.545Z,15.30
2023-10-06T21:11:36.282Z,19.10
2023-10-06T21:14:15.162Z,14.40
2023-10-06T21:16:50.734Z,21.50
2023-10-06T21:19:25.536Z,22.10
2023-10-06T21:21:59.796Z,19.20
2023-10-06T21:24:33.555Z,33.40
2023-10-06T21:27:08.033Z,46.30
2023-10-06T21:29:41.880Z,38.80
2023-10-06T21:32:04.206Z,47.60
2023-10-06T21:34:37.812Z,46.30
2023-10-06T21:37:04.340Z,34.60
2023-10-06T21:39:28.106Z,32.50
2023-10-06T21:42:02.247Z,17.70
2023-10-06T21:44:35.386Z,14.20
2023-10-06T21:47:08.965Z,15.10
2023-10-06T21:49:44.314Z,48.30
2023-10-06T21:52:18.563Z,22.10
2023-10-06T21:54:53.602Z,17.20
2023-10-06T21:57:20.777Z,15.80
2023-10-06T21:59:47.732Z,20.30
2023-10-06T22:02:10.346Z,36.60
2023-10-06T22:04:47.219Z,87.30
2023-10-06T22:07:15.837Z,48.30
2023-10-06T22:09:50.026Z,34.20
2023-10-06T22:12:24.725Z,31.00
2023-10-06T22:14:48.190Z,29.00
2023-10-06T22:17:22.436Z,19.40
2023-10-06T22:19:47.104Z,31.40
2023-10-06T22:22:21.333Z,15.60
2023-10-06T22:24:58.385Z,23.30
2023-10-06T22:27:32.717Z,35.70
2023-10-06T22:30:06.650Z,63.40
2023-10-06T22:32:42.727Z,36.70
2023-10-06T22:35:18.659Z,33.10
2023-10-06T22:37:53.321Z,20.10
2023-10-06T22:40:22.871Z,40.80
2023-10-06T22:42:57.767Z,28.10
2023-10-06T22:45:32.023Z,27.60
2023-10-06T22:47:58.111Z,25.60
2023-10-06T22:50:32.929Z,29.30
2023-10-06T22:53:07.638Z,22.70
2023-10-06T22:55:31.820Z,25.50
2023-10-06T22:58:07.207Z,22.40
2023-10-06T23:00:33.750Z,40.50
2023-10-06T23:03:09.825Z,9.20
2023-10-06T23:05:44.913Z,38.90
2023-10-06T23:08:19.036Z,35.10
2023-10-06T23:10:52.502Z,25.60
2023-10-06T23:13:30.661Z,42.50
2023-10-06T23:16:06.445Z,22.80
2023-10-06T23:18:41.374Z,29.30
2023-10-06T23:37:57.356Z,14.70
2023-10-06T23:40:36.564Z,13.60
2023-10-06T23:43:10.715Z,3.00
2023-10-06T23:45:48.166Z,25.20
2023-10-06T23:48:15.469Z,14.40
2023-10-06T23:51:01.084Z,3.00
2023-10-06T23:53:38.825Z,1.50
2023-10-06T23:56:25.105Z,1.80
2023-10-06T23:59:12.774Z,1.50
